Time;durP1;ratioP1;P1;durP2;ratioP2;P2;SDS_P1;SDS_P2;PMS_P1;PMS_P2;Temp;Humidity;BMP_temperature;BMP_pressure;BME280_temperature;BME280_humidity;BME280_pressure;Samples;Min_cycle;Max_cycle;Signal;HPM_P1;HPM_P2
2021/04/13 00:01:11;;;;;;;38.40;15.83;;;;;;;;;;5084509;28;20017;-81
2021/04/13 00:03:42;;;;;;;24.23;10.63;;;;;;;;;;5084322;28;20029;-81
2021/04/13 00:06:20;;;;;;;23.53;10.13;;;;;;;;;;5084040;28;20504;-80
2021/04/13 00:08:47;;;;;;;21.27;10.30;;;;;;;;;;5052173;28;20035;-80
2021/04/13 00:11:12;;;;;;;18.63;8.77;;;;;;;;;;5051891;28;20468;-81
2021/04/13 00:13:41;;;;;;;14.40;7.90;;;;;;;;;;5050649;28;20112;-81
2021/04/13 00:16:10;;;;;;;16.40;8.30;;;;;;;;;;5051364;28;20017;-80
2021/04/13 00:18:38;;;;;;;18.27;8.63;;;;;;;;;;5050424;28;20043;-80
2021/04/13 00:21:33;;;;;;;15.33;8.33;;;;;;;;;;5050407;28;20060;-80
2021/04/13 00:24:00;;;;;;;17.03;7.30;;;;;;;;;;5055730;28;20061;-81
2021/04/13 00:26:26;;;;;;;15.50;8.13;;;;;;;;;;5051601;28;20017;-81
2021/04/13 00:28:52;;;;;;;16.63;7.60;;;;;;;;;;5050798;28;20029;-81
2021/04/13 00:31:41;;;;;;;14.73;8.10;;;;;;;;;;5052150;28;20027;-81
2021/04/13 00:34:19;;;;;;;13.30;7.80;;;;;;;;;;5050853;28;20060;-81
2021/04/13 00:36:44;;;;;;;16.03;7.97;;;;;;;;;;5050375;28;20032;-81
2021/04/13 00:39:29;;;;;;;17.93;8.07;;;;;;;;;;5050606;28;20418;-81
2021/04/13 00:41:57;;;;;;;17.57;8.37;;;;;;;;;;5050630;28;20138;-80
2021/04/13 00:44:23;;;;;;;22.90;8.70;;;;;;;;;;5067445;28;20378;-81
2021/04/13 00:46:50;;;;;;;16.23;8.63;;;;;;;;;;5066756;28;20021;-81
2021/04/13 00:49:17;;;;;;;18.10;8.53;;;;;;;;;;5051071;28;20024;-81
2021/04/13 00:51:48;;;;;;;15.70;7.80;;;;;;;;;;5050347;28;20025;-80
2021/04/13 00:54:26;;;;;;;15.67;8.03;;;;;;;;;;5050881;28;20017;-80
2021/04/13 00:56:51;;;;;;;17.80;8.73;;;;;;;;;;5066760;28;20048;-81
2021/04/13 00:59:18;;;;;;;16.67;8.37;;;;;;;;;;5051318;28;20449;-81
2021/04/13 01:01:48;;;;;;;18.13;7.80;;;;;;;;;;5050142;28;20036;-81
2021/04/13 01:04:21;;;;;;;14.17;7.77;;;;;;;;;;5049790;28;20448;-81
2021/04/13 01:06:57;;;;;;;15.00;7.90;;;;;;;;;;5067045;28;20021;-81
2021/04/13 01:09:24;;;;;;;15.47;8.53;;;;;;;;;;5051425;28;20017;-81
2021/04/13 01:12:01;;;;;;;17.67;8.23;;;;;;;;;;5050093;28;20120;-81
2021/04/13 01:14:28;;;;;;;18.13;7.93;;;;;;;;;;5051080;28;20033;-80
2021/04/13 01:16:58;;;;;;;20.60;9.00;;;;;;;;;;5042533;28;20532;-81
2021/04/13 01:19:29;;;;;;;15.33;8.40;;;;;;;;;;5050640;28;20377;-81
2021/04/13 01:21:57;;;;;;;19.63;9.30;;;;;;;;;;5044979;28;20025;-81
2021/04/13 01:24:27;;;;;;;18.97;9.60;;;;;;;;;;5048400;28;20032;-81
2021/04/13 01:26:53;;;;;;;19.87;9.40;;;;;;;;;;5048319;28;20025;-81
2021/04/13 01:29:20;;;;;;;20.73;9.73;;;;;;;;;;5067933;28;20025;-81
2021/04/13 01:31:50;;;;;;;24.87;9.67;;;;;;;;;;5051737;28;20424;-81
2021/04/13 01:34:19;;;;;;;20.40;8.83;;;;;;;;;;5068762;28;20460;-81
2021/04/13 01:36:50;;;;;;;19.73;9.67;;;;;;;;;;5052150;28;20025;-81
2021/04/13 01:39:18;;;;;;;21.20;9.53;;;;;;;;;;5051546;28;20027;-80
2021/04/13 01:44:20;;;;;;;18.77;9.17;;;;;;;;;;5053523;28;20017;-81
2021/04/13 01:46:45;;;;;;;18.40;9.50;;;;;;;;;;5050800;28;20017;-81
2021/04/13 01:49:11;;;;;;;19.47;9.37;;;;;;;;;;5052511;28;20032;-81
2021/04/13 01:51:36;;;;;;;18.53;9.27;;;;;;;;;;5052414;28;20100;-81
2021/04/13 01:54:02;;;;;;;22.47;9.27;;;;;;;;;;5052708;28;20056;-81
2021/04/13 01:56:28;;;;;;;18.07;9.27;;;;;;;;;;5053025;28;20174;-81
2021/04/13 01:59:07;;;;;;;22.77;9.53;;;;;;;;;;5054070;28;20640;-81
2021/04/13 02:01:43;;;;;;;19.60;9.63;;;;;;;;;;5079178;28;20078;-81
2021/04/13 02:04:18;;;;;;;20.13;9.07;;;;;;;;;;5052602;28;20017;-81
2021/04/13 02:06:49;;;;;;;18.73;9.47;;;;;;;;;;5052280;28;20448;-81
2021/04/13 02:09:29;;;;;;;16.27;8.90;;;;;;;;;;5054161;28;20371;-81
2021/04/13 02:11:56;;;;;;;16.87;9.67;;;;;;;;;;5052353;28;20055;-81
2021/04/13 02:14:23;;;;;;;17.97;8.97;;;;;;;;;;5051901;28;20036;-81
2021/04/13 02:16:54;;;;;;;18.20;9.93;;;;;;;;;;5053717;28;20017;-81
2021/04/13 02:19:20;;;;;;;22.97;9.33;;;;;;;;;;5053645;28;20060;-81
2021/04/13 02:21:50;;;;;;;17.37;9.37;;;;;;;;;;5052625;28;20075;-81
2021/04/13 02:24:20;;;;;;;18.17;9.60;;;;;;;;;;5053693;28;20013;-81
2021/04/13 02:26:47;;;;;;;17.17;9.17;;;;;;;;;;5053826;28;20016;-81
2021/04/13 02:29:13;;;;;;;18.23;9.63;;;;;;;;;;5052329;28;20020;-81
2021/04/13 02:31:47;;;;;;;16.87;9.97;;;;;;;;;;5052247;28;20013;-81
2021/04/13 02:34:21;;;;;;;17.60;9.00;;;;;;;;;;5068353;28;20472;-81
2021/04/13 02:36:48;;;;;;;23.17;9.87;;;;;;;;;;5051232;28;20468;-81
2021/04/13 02:39:16;;;;;;;19.00;9.30;;;;;;;;;;5051623;28;20029;-82
2021/04/13 02:41:47;;;;;;;15.83;9.00;;;;;;;;;;5050931;28;20527;-82
2021/04/13 02:44:14;;;;;;;15.90;8.73;;;;;;;;;;5051733;28;20020;-82
2021/04/13 02:46:40;;;;;;;17.27;9.27;;;;;;;;;;5049945;28;20293;-81
2021/04/13 02:49:09;;;;;;;20.10;9.20;;;;;;;;;;5068113;28;20060;-81
2021/04/13 02:51:38;;;;;;;17.53;8.83;;;;;;;;;;5067069;28;20020;-82
2021/04/13 02:54:05;;;;;;;18.47;8.80;;;;;;;;;;5050849;28;20436;-82
2021/04/13 02:56:35;;;;;;;19.43;8.53;;;;;;;;;;5049791;28;20036;-81
2021/04/13 02:59:05;;;;;;;17.87;9.83;;;;;;;;;;5049884;28;20025;-82
2021/04/13 03:01:31;;;;;;;21.70;10.33;;;;;;;;;;5054189;28;20710;-81
2021/04/13 03:04:00;;;;;;;20.83;9.97;;;;;;;;;;5085359;28;20029;-82
2021/04/13 03:06:25;;;;;;;25.33;11.07;;;;;;;;;;5051457;28;20078;-82
2021/04/13 03:08:50;;;;;;;18.07;10.03;;;;;;;;;;5084706;28;20115;-82
2021/04/13 03:11:20;;;;;;;20.23;9.70;;;;;;;;;;5051540;28;20025;-82
2021/04/13 03:13:47;;;;;;;22.37;10.30;;;;;;;;;;5068174;28;20033;-81
2021/04/13 03:16:13;;;;;;;19.03;9.43;;;;;;;;;;5051482;28;20028;-82
2021/04/13 03:18:44;;;;;;;21.73;10.73;;;;;;;;;;5053014;28;20594;-82
2021/04/13 03:21:21;;;;;;;19.80;10.17;;;;;;;;;;5084932;28;20028;-82
2021/04/13 03:23:47;;;;;;;28.97;10.93;;;;;;;;;;5052634;28;20017;-82
2021/04/13 03:26:24;;;;;;;18.97;10.37;;;;;;;;;;5084727;28;20019;-82
2021/04/13 03:28:55;;;;;;;19.43;9.97;;;;;;;;;;5051621;28;20431;-82
2021/04/13 03:31:21;;;;;;;24.43;10.80;;;;;;;;;;5067762;28;20546;-82
2021/04/13 03:33:46;;;;;;;19.83;9.93;;;;;;;;;;5050712;28;20029;-82
2021/04/13 03:36:12;;;;;;;17.50;9.97;;;;;;;;;;5053505;28;20025;-81
2021/04/13 03:38:37;;;;;;;20.17;10.35;;;;;;;;;;5052614;28;20112;-82
2021/04/13 03:41:03;;;;;;;21.37;10.63;;;;;;;;;;5051061;28;20014;-81
2021/04/13 03:43:29;;;;;;;21.40;9.63;;;;;;;;;;5051766;28;20021;-82
2021/04/13 03:46:00;;;;;;;21.07;10.23;;;;;;;;;;5054035;28;20029;-82
2021/04/13 03:48:26;;;;;;;20.90;9.53;;;;;;;;;;5037244;28;20024;-82
2021/04/13 03:50:58;;;;;;;17.97;9.77;;;;;;;;;;5051928;28;20052;-82
2021/04/13 03:53:28;;;;;;;21.38;9.20;;;;;;;;;;5050480;28;20025;-81
2021/04/13 03:55:57;;;;;;;19.13;9.20;;;;;;;;;;5043565;28;20029;-82
2021/04/13 03:58:23;;;;;;;24.93;10.33;;;;;;;;;;5052087;28;20071;-82
2021/04/13 04:00:50;;;;;;;19.73;9.90;;;;;;;;;;5084337;28;20049;-82
2021/04/13 04:03:15;;;;;;;19.40;10.57;;;;;;;;;;5050797;28;20024;-82
2021/04/13 04:05:44;;;;;;;21.03;9.67;;;;;;;;;;5052104;28;20013;-82
2021/04/13 04:08:15;;;;;;;18.53;10.10;;;;;;;;;;5050713;28;20028;-82
2021/04/13 04:10:51;;;;;;;24.40;11.30;;;;;;;;;;5084424;28;20024;-82
2021/04/13 04:13:16;;;;;;;19.50;10.30;;;;;;;;;;5084233;28;20024;-82
2021/04/13 04:15:43;;;;;;;18.40;10.02;;;;;;;;;;5052118;28;20047;-82
2021/04/13 04:18:18;;;;;;;22.00;10.37;;;;;;;;;;5084321;28;20036;-82
2021/04/13 04:20:44;;;;;;;20.67;10.90;;;;;;;;;;5071579;28;20036;-82
2021/04/13 04:23:14;;;;;;;20.83;10.80;;;;;;;;;;5052221;28;20021;-81
2021/04/13 04:25:41;;;;;;;23.10;11.33;;;;;;;;;;5051592;28;20022;-82
2021/04/13 04:28:12;;;;;;;21.37;10.33;;;;;;;;;;5052187;28;20029;-82
2021/04/13 04:30:37;;;;;;;21.17;10.03;;;;;;;;;;5050633;28;20027;-82
2021/04/13 04:33:03;;;;;;;20.83;10.23;;;;;;;;;;5050599;28;20021;-83
2021/04/13 04:35:40;;;;;;;19.97;9.50;;;;;;;;;;5050094;28;20062;-82
2021/04/13 04:38:24;;;;;;;19.87;10.23;;;;;;;;;;5051428;28;20021;-82
2021/04/13 04:40:49;;;;;;;17.67;9.43;;;;;;;;;;5067662;28;20033;-83
2021/04/13 04:43:17;;;;;;;18.50;9.77;;;;;;;;;;5050459;28;20333;-82
2021/04/13 04:45:47;;;;;;;23.17;11.07;;;;;;;;;;5050177;28;20017;-83
2021/04/13 04:48:21;;;;;;;24.57;10.17;;;;;;;;;;5051449;28;20028;-83
2021/04/13 04:50:46;;;;;;;17.27;9.40;;;;;;;;;;5083578;28;20036;-83
2021/04/13 04:53:12;;;;;;;19.27;9.97;;;;;;;;;;5049754;28;20025;-83
2021/04/13 04:55:38;;;;;;;19.17;9.73;;;;;;;;;;5050349;28;20093;-83
2021/04/13 04:58:03;;;;;;;24.73;10.50;;;;;;;;;;5057797;28;20165;-83
2021/04/13 05:00:28;;;;;;;19.43;9.83;;;;;;;;;;5072337;28;20013;-83
2021/04/13 05:02:53;;;;;;;22.67;10.40;;;;;;;;;;5051131;28;20044;-83
2021/04/13 05:05:18;;;;;;;22.60;10.83;;;;;;;;;;5053462;28;20009;-83
2021/04/13 05:07:44;;;;;;;36.63;17.83;;;;;;;;;;5045945;28;20033;-82
2021/04/13 05:10:09;;;;;;;25.87;11.20;;;;;;;;;;5084912;28;20029;-82
2021/04/13 05:12:34;;;;;;;19.13;11.17;;;;;;;;;;5053291;28;20021;-83
2021/04/13 05:14:59;;;;;;;21.00;10.90;;;;;;;;;;5053532;28;20021;-83
2021/04/13 05:17:25;;;;;;;18.60;10.67;;;;;;;;;;5076351;28;20033;-83
2021/04/13 05:19:50;;;;;;;22.80;10.50;;;;;;;;;;5052851;28;20108;-83
2021/04/13 05:22:15;;;;;;;21.17;10.70;;;;;;;;;;5053955;28;20526;-83
2021/04/13 05:24:40;;;;;;;25.10;11.93;;;;;;;;;;5052563;28;20086;-83
2021/04/13 05:27:06;;;;;;;29.40;14.03;;;;;;;;;;5053004;28;20028;-83
2021/04/13 05:29:31;;;;;;;33.73;18.47;;;;;;;;;;5051362;28;20025;-83
2021/04/13 05:31:56;;;;;;;34.83;14.10;;;;;;;;;;5051291;28;20021;-83
2021/04/13 05:34:22;;;;;;;22.27;11.97;;;;;;;;;;5052159;28;20033;-84
2021/04/13 05:36:50;;;;;;;24.90;12.57;;;;;;;;;;5085419;28;20434;-84
2021/04/13 05:39:15;;;;;;;21.87;11.77;;;;;;;;;;5085108;28;20388;-83
2021/04/13 05:41:41;;;;;;;24.03;12.30;;;;;;;;;;5085279;28;20013;-84
2021/04/13 05:44:06;;;;;;;21.40;11.03;;;;;;;;;;5053525;28;20103;-84
2021/04/13 05:46:33;;;;;;;24.33;11.87;;;;;;;;;;5086856;28;20032;-84
2021/04/13 05:48:58;;;;;;;22.97;11.93;;;;;;;;;;5086081;28;20067;-84
2021/04/13 05:51:23;;;;;;;27.53;12.80;;;;;;;;;;5086135;28;20052;-84
2021/04/13 05:53:48;;;;;;;26.43;13.17;;;;;;;;;;5087020;28;20405;-84
2021/04/13 05:56:18;;;;;;;23.07;13.00;;;;;;;;;;5086756;28;20040;-84
2021/04/13 05:58:45;;;;;;;22.03;12.43;;;;;;;;;;5084896;28;20017;-84
2021/04/13 06:01:12;;;;;;;21.73;12.23;;;;;;;;;;5054492;28;20047;-85
2021/04/13 06:03:37;;;;;;;25.93;12.37;;;;;;;;;;5086750;28;20488;-84
2021/04/13 06:06:02;;;;;;;23.87;12.30;;;;;;;;;;5053064;28;20024;-83
2021/04/13 06:08:28;;;;;;;25.30;12.07;;;;;;;;;;5054329;28;20441;-83
2021/04/13 06:10:54;;;;;;;22.90;12.33;;;;;;;;;;5053131;28;20021;-83
2021/04/13 06:13:19;;;;;;;25.00;12.20;;;;;;;;;;5052351;28;20056;-83
2021/04/13 06:15:44;;;;;;;38.03;15.23;;;;;;;;;;5084606;28;20112;-83
2021/04/13 06:18:10;;;;;;;32.93;13.70;;;;;;;;;;5086519;28;20025;-83
2021/04/13 06:20:35;;;;;;;27.40;13.37;;;;;;;;;;5086277;28;20009;-83
2021/04/13 06:23:00;;;;;;;27.20;13.67;;;;;;;;;;5086331;28;20115;-83
2021/04/13 06:25:27;;;;;;;27.73;14.67;;;;;;;;;;5085358;28;20108;-83
2021/04/13 06:27:52;;;;;;;28.23;13.73;;;;;;;;;;5054142;28;20143;-83
2021/04/13 06:30:18;;;;;;;24.90;14.13;;;;;;;;;;5086241;28;20468;-83
2021/04/13 06:32:44;;;;;;;30.90;14.07;;;;;;;;;;5081468;28;20053;-83
2021/04/13 06:35:09;;;;;;;23.13;13.77;;;;;;;;;;5050527;28;20102;-83
2021/04/13 06:37:35;;;;;;;27.40;14.97;;;;;;;;;;5053161;28;20096;-82
2021/04/13 06:40:01;;;;;;;28.57;15.03;;;;;;;;;;5053370;28;20121;-82
2021/04/13 06:42:29;;;;;;;24.23;14.30;;;;;;;;;;5086106;28;20048;-82
2021/04/13 06:45:33;;;;;;;24.00;13.83;;;;;;;;;;5052828;28;20468;-82
2021/04/13 06:48:09;;;;;;;27.40;13.13;;;;;;;;;;5015869;28;20512;-83
2021/04/13 06:50:40;;;;;;;27.50;13.90;;;;;;;;;;5003209;28;20117;-83
2021/04/13 06:53:24;;;;;;;24.83;13.30;;;;;;;;;;5036753;28;20094;-83
2021/04/13 06:55:49;;;;;;;26.83;13.57;;;;;;;;;;5083625;28;20025;-83
2021/04/13 06:58:21;;;;;;;28.25;14.38;;;;;;;;;;5075309;28;20082;-83
2021/04/13 07:00:55;;;;;;;25.70;14.47;;;;;;;;;;5051518;28;20469;-83
2021/04/13 07:03:31;;;;;;;24.00;13.50;;;;;;;;;;5074241;28;20021;-83
2021/04/13 07:06:04;;;;;;;26.47;13.50;;;;;;;;;;5075386;28;20021;-83
2021/04/13 07:08:36;;;;;;;26.67;13.70;;;;;;;;;;5052046;28;20021;-83
2021/04/13 07:11:09;;;;;;;30.27;14.73;;;;;;;;;;5084635;28;20033;-82
2021/04/13 07:13:44;;;;;;;25.37;14.43;;;;;;;;;;5085032;28;20108;-82
2021/04/13 07:16:23;;;;;;;32.93;16.47;;;;;;;;;;5082065;28;20124;-82
2021/04/13 07:19:06;;;;;;;27.10;14.13;;;;;;;;;;5052806;28;20043;-82
2021/04/13 07:21:51;;;;;;;29.73;15.47;;;;;;;;;;5082237;28;20448;-82
2021/04/13 07:24:19;;;;;;;30.37;15.00;;;;;;;;;;5072608;28;20017;-81
2021/04/13 07:26:48;;;;;;;34.97;15.50;;;;;;;;;;5050985;28;20033;-82
2021/04/13 07:29:19;;;;;;;31.07;15.47;;;;;;;;;;5051111;28;20759;-82
2021/04/13 07:31:54;;;;;;;28.90;15.00;;;;;;;;;;5051935;28;20025;-81
2021/04/13 07:34:20;;;;;;;27.73;14.33;;;;;;;;;;5051941;28;20039;-82
2021/04/13 07:36:48;;;;;;;31.43;14.60;;;;;;;;;;5084018;28;20033;-81
2021/04/13 07:39:13;;;;;;;31.03;14.30;;;;;;;;;;5050910;28;20032;-81
2021/04/13 07:41:53;;;;;;;28.77;12.83;;;;;;;;;;5052201;28;20013;-81
2021/04/13 07:44:37;;;;;;;22.93;12.80;;;;;;;;;;5052148;28;20079;-81
2021/04/13 07:47:08;;;;;;;25.87;11.57;;;;;;;;;;5052381;28;20029;-81
2021/04/13 07:50:00;;;;;;;29.13;11.80;;;;;;;;;;5050411;28;20029;-81
2021/04/13 07:52:31;;;;;;;22.00;8.80;;;;;;;;;;5064800;28;20037;-81
2021/04/13 07:55:04;;;;;;;19.53;9.40;;;;;;;;;;5048647;28;20130;-81
2021/04/13 07:57:35;;;;;;;26.47;10.97;;;;;;;;;;5051755;28;20031;-81
2021/04/13 08:00:19;;;;;;;20.97;7.47;;;;;;;;;;5050245;28;20021;-81
2021/04/13 08:03:11;;;;;;;22.30;6.57;;;;;;;;;;5052360;28;20307;-81
2021/04/13 08:05:39;;;;;;;14.07;4.47;;;;;;;;;;5040832;28;20025;-81
2021/04/13 08:08:17;;;;;;;17.73;4.90;;;;;;;;;;5067614;28;20453;-81
2021/04/13 08:10:42;;;;;;;12.67;3.13;;;;;;;;;;5055124;28;20103;-81
2021/04/13 08:13:10;;;;;;;22.07;4.03;;;;;;;;;;5052205;28;20540;-80
2021/04/13 08:15:40;;;;;;;13.17;3.57;;;;;;;;;;5051689;28;20023;-81
2021/04/13 08:18:24;;;;;;;11.20;3.27;;;;;;;;;;5050473;28;20024;-81
2021/04/13 08:20:50;;;;;;;8.73;2.80;;;;;;;;;;5066546;28;20489;-81
2021/04/13 08:23:21;;;;;;;10.13;2.57;;;;;;;;;;5050772;28;20071;-81
2021/04/13 08:25:48;;;;;;;8.47;2.70;;;;;;;;;;5048779;28;20539;-81
2021/04/13 08:28:28;;;;;;;20.07;4.90;;;;;;;;;;5051770;28;20464;-81
2021/04/13 08:33:58;;;;;;;18.00;3.97;;;;;;;;;;5042999;28;20571;-81
2021/04/13 08:36:28;;;;;;;8.55;2.40;;;;;;;;;;5044085;28;20017;-81
2021/04/13 08:39:01;;;;;;;18.80;6.13;;;;;;;;;;5050278;28;20033;-81
2021/04/13 08:41:26;;;;;;;9.50;2.70;;;;;;;;;;5050299;28;20027;-81
2021/04/13 08:43:58;;;;;;;12.97;3.33;;;;;;;;;;5063361;28;20024;-81
2021/04/13 08:46:27;;;;;;;20.35;7.25;;;;;;;;;;5052920;28;20012;-81
2021/04/13 08:48:55;;;;;;;8.30;2.20;;;;;;;;;;5054226;28;20036;-81
2021/04/13 08:51:32;;;;;;;9.93;2.67;;;;;;;;;;5069941;28;20028;-81
2021/04/13 08:54:21;;;;;;;13.97;3.70;;;;;;;;;;5055292;28;20021;-81
2021/04/13 08:57:13;;;;;;;8.40;2.57;;;;;;;;;;5055333;28;20028;-81
2021/04/13 08:59:39;;;;;;;9.02;2.78;;;;;;;;;;5045776;28;20055;-81
2021/04/13 09:02:25;;;;;;;9.13;2.30;;;;;;;;;;5054916;28;20029;-81
2021/04/13 09:05:05;;;;;;;9.30;2.60;;;;;;;;;;5054443;28;20017;-81
2021/04/13 09:07:38;;;;;;;8.13;2.70;;;;;;;;;;5055603;28;20048;-81
2021/04/13 09:10:09;;;;;;;10.03;3.67;;;;;;;;;;5053373;28;20145;-81
2021/04/13 09:12:36;;;;;;;13.63;3.17;;;;;;;;;;5055196;28;20017;-81
2021/04/13 09:15:06;;;;;;;22.30;5.10;;;;;;;;;;5069915;28;20369;-81
2021/04/13 09:17:37;;;;;;;8.40;1.80;;;;;;;;;;5055624;28;20024;-81
2021/04/13 09:20:20;;;;;;;5.33;1.43;;;;;;;;;;5053765;28;20024;-81
2021/04/13 09:22:46;;;;;;;12.57;1.90;;;;;;;;;;5054499;28;20057;-81
2021/04/13 09:25:13;;;;;;;8.80;1.00;;;;;;;;;;5054248;28;20043;-81
2021/04/13 09:27:40;;;;;;;10.33;1.50;;;;;;;;;;5054724;28;20048;-81
2021/04/13 09:30:22;;;;;;;8.23;1.40;;;;;;;;;;5053735;28;20422;-81
2021/04/13 09:32:48;;;;;;;6.15;1.48;;;;;;;;;;5055054;28;20017;-81
2021/04/13 09:35:28;;;;;;;10.63;1.50;;;;;;;;;;5054996;28;20128;-81
2021/04/13 09:38:19;;;;;;;5.80;1.40;;;;;;;;;;5053299;28;20055;-81
2021/04/13 09:40:48;;;;;;;11.90;2.43;;;;;;;;;;5053470;28;20028;-81
2021/04/13 09:43:13;;;;;;;7.13;2.43;;;;;;;;;;5053265;28;20009;-81
2021/04/13 09:46:00;;;;;;;6.30;1.90;;;;;;;;;;5070027;28;20040;-81
2021/04/13 09:48:44;;;;;;;8.77;1.80;;;;;;;;;;5052953;28;20020;-81
2021/04/13 09:51:15;;;;;;;8.50;1.83;;;;;;;;;;5053310;28;20021;-81
2021/04/13 09:53:55;;;;;;;9.50;1.93;;;;;;;;;;5053860;28;20029;-81
2021/04/13 09:56:26;;;;;;;12.07;2.40;;;;;;;;;;5053187;28;20031;-81
2021/04/13 09:59:07;;;;;;;10.77;2.00;;;;;;;;;;5052339;28;20037;-81
2021/04/13 10:01:51;;;;;;;5.63;1.70;;;;;;;;;;5071722;28;20109;-81
2021/04/13 10:04:16;;;;;;;14.73;2.27;;;;;;;;;;5053647;28;20045;-81
2021/04/13 10:06:46;;;;;;;8.40;1.70;;;;;;;;;;5054038;28;20471;-81
2021/04/13 10:09:23;;;;;;;6.27;2.10;;;;;;;;;;5052299;28;20037;-81
2021/04/13 10:11:51;;;;;;;11.23;2.13;;;;;;;;;;5044745;28;20128;-81
2021/04/13 10:14:19;;;;;;;6.07;1.80;;;;;;;;;;5044852;28;20381;-81
2021/04/13 10:16:50;;;;;;;7.87;2.00;;;;;;;;;;5046047;28;20072;-81
2021/04/13 10:19:18;;;;;;;7.87;2.63;;;;;;;;;;5052836;28;20040;-81
2021/04/13 10:22:02;;;;;;;8.80;2.93;;;;;;;;;;5044106;28;20064;-81
2021/04/13 10:24:41;;;;;;;14.07;3.00;;;;;;;;;;5054560;28;20013;-81
2021/04/13 10:27:18;;;;;;;9.90;3.20;;;;;;;;;;5082117;28;20024;-81
2021/04/13 10:29:43;;;;;;;7.50;3.20;;;;;;;;;;5053980;28;20436;-81
2021/04/13 10:32:29;;;;;;;12.83;2.60;;;;;;;;;;5046603;28;20104;-81
2021/04/13 10:35:03;;;;;;;6.53;2.50;;;;;;;;;;5066069;28;20480;-81
2021/04/13 10:37:34;;;;;;;10.53;3.07;;;;;;;;;;5059302;28;20025;-81
2021/04/13 10:40:09;;;;;;;7.87;2.50;;;;;;;;;;5042168;28;20025;-81
2021/04/13 10:42:53;;;;;;;6.73;1.90;;;;;;;;;;5053660;28;20109;-81
2021/04/13 10:45:35;;;;;;;7.50;2.50;;;;;;;;;;5073282;28;20482;-81
2021/04/13 10:48:00;;;;;;;8.60;2.70;;;;;;;;;;5053857;28;20024;-81
2021/04/13 10:50:26;;;;;;;3.40;2.07;;;;;;;;;;5052230;28;20416;-81
2021/04/13 10:53:04;;;;;;;5.50;1.90;;;;;;;;;;5068865;28;20025;-81
2021/04/13 10:55:35;;;;;;;8.25;2.65;;;;;;;;;;5051806;28;20025;-81
2021/04/13 10:58:16;;;;;;;2.53;1.30;;;;;;;;;;5067939;28;20144;-81
2021/04/13 11:01:00;;;;;;;5.03;1.60;;;;;;;;;;5050470;28;20091;-79
2021/04/13 11:03:43;;;;;;;12.57;2.15;;;;;;;;;;5053494;28;20476;-79
2021/04/13 11:06:31;;;;;;;9.43;1.73;;;;;;;;;;5052437;28;20017;-79
2021/04/13 11:09:05;;;;;;;5.95;1.45;;;;;;;;;;5051856;28;20095;-79
2021/04/13 11:11:49;;;;;;;7.55;2.25;;;;;;;;;;5053139;28;20020;-79
2021/04/13 11:14:26;;;;;;;3.97;1.60;;;;;;;;;;5052621;28;20017;-79
2021/04/13 11:17:10;;;;;;;4.47;1.48;;;;;;;;;;5051427;28;20033;-79
2021/04/13 11:19:35;;;;;;;8.10;1.60;;;;;;;;;;5051720;28;20562;-79
2021/04/13 11:22:00;;;;;;;5.78;1.78;;;;;;;;;;5052732;28;20047;-78
2021/04/13 11:24:25;;;;;;;7.94;1.80;;;;;;;;;;5052418;28;20052;-79
2021/04/13 11:26:51;;;;;;;6.48;1.52;;;;;;;;;;5053039;28;20044;-79
2021/04/13 11:29:31;;;;;;;4.50;1.50;;;;;;;;;;5053131;28;20033;-79
2021/04/13 11:32:15;;;;;;;8.45;1.92;;;;;;;;;;5051581;28;20421;-79
2021/04/13 11:35:02;;;;;;;2.95;1.60;;;;;;;;;;5050957;28;20091;-79
2021/04/13 11:37:39;;;;;;;4.63;1.33;;;;;;;;;;5052999;28;20079;-80
2021/04/13 11:40:13;;;;;;;4.10;1.10;;;;;;;;;;5039795;28;20372;-79
2021/04/13 11:42:39;;;;;;;6.50;1.40;;;;;;;;;;5052444;28;20368;-79
2021/04/13 11:45:24;;;;;;;4.68;1.63;;;;;;;;;;5050783;28;20609;-79
2021/04/13 11:47:58;;;;;;;6.78;2.40;;;;;;;;;;5049976;28;20362;-79
2021/04/13 11:50:38;;;;;;;3.15;2.00;;;;;;;;;;5052410;28;20055;-79
2021/04/13 11:53:08;;;;;;;7.28;2.00;;;;;;;;;;5051306;28;20024;-79
2021/04/13 11:55:37;;;;;;;7.95;2.30;;;;;;;;;;5050867;28;20033;-79
2021/04/13 11:58:10;;;;;;;4.82;1.70;;;;;;;;;;5064112;28;20033;-79
2021/04/13 12:00:35;;;;;;;6.68;1.83;;;;;;;;;;5052489;28;20044;-79
2021/04/13 12:03:02;;;;;;;14.70;2.38;;;;;;;;;;5051086;28;20056;-79
2021/04/13 12:05:31;;;;;;;7.22;2.22;;;;;;;;;;5051846;28;20017;-79
2021/04/13 12:07:56;;;;;;;7.50;2.22;;;;;;;;;;5052163;28;20376;-78
2021/04/13 12:10:30;;;;;;;10.32;2.65;;;;;;;;;;5051907;28;20024;-79
2021/04/13 12:12:56;;;;;;;5.22;2.40;;;;;;;;;;5051862;28;20378;-79
2021/04/13 12:15:21;;;;;;;5.43;2.30;;;;;;;;;;5051508;28;20020;-78
2021/04/13 12:17:48;;;;;;;11.38;2.60;;;;;;;;;;5051133;28;20017;-79
2021/04/13 12:20:17;;;;;;;7.82;2.65;;;;;;;;;;5049961;28;20086;-78
2021/04/13 12:22:42;;;;;;;6.27;2.30;;;;;;;;;;5040524;28;20479;-79
2021/04/13 12:25:26;;;;;;;5.37;2.50;;;;;;;;;;5051769;28;20025;-78
2021/04/13 12:27:59;;;;;;;11.70;2.37;;;;;;;;;;5050561;28;20025;-79
2021/04/13 12:30:25;;;;;;;8.07;2.80;;;;;;;;;;5051749;28;20021;-79
2021/04/13 12:32:50;;;;;;;7.67;2.50;;;;;;;;;;5051992;28;20102;-78
2021/04/13 12:35:34;;;;;;;7.53;2.95;;;;;;;;;;5050598;28;20380;-78
2021/04/13 12:37:59;;;;;;;6.90;2.28;;;;;;;;;;5067365;28;20020;-78
2021/04/13 12:40:26;;;;;;;9.40;3.05;;;;;;;;;;5051820;28;20076;-79
2021/04/13 12:43:17;;;;;;;3.03;1.40;;;;;;;;;;5051982;28;20049;-79
2021/04/13 12:45:45;;;;;;;5.18;1.50;;;;;;;;;;5043350;28;20032;-79
2021/04/13 12:48:10;;;;;;;7.65;1.52;;;;;;;;;;5050649;28;20036;-79
2021/04/13 12:50:35;;;;;;;4.63;1.95;;;;;;;;;;5050277;28;20024;-79
2021/04/13 12:53:02;;;;;;;4.25;1.98;;;;;;;;;;5051479;28;20036;-78
2021/04/13 12:55:28;;;;;;;9.63;1.75;;;;;;;;;;5051809;28;20091;-78
2021/04/13 12:57:57;;;;;;;2.72;1.52;;;;;;;;;;5051753;28;20756;-78
2021/04/13 13:00:29;;;;;;;6.55;1.60;;;;;;;;;;5038106;28;20116;-79
2021/04/13 13:02:54;;;;;;;4.30;1.73;;;;;;;;;;5050371;28;20013;-79
2021/04/13 13:05:24;;;;;;;3.42;1.63;;;;;;;;;;5046137;28;20032;-79
2021/04/13 13:07:55;;;;;;;2.05;1.20;;;;;;;;;;5043562;28;20096;-79
2021/04/13 13:10:25;;;;;;;2.65;1.23;;;;;;;;;;5051457;28;20075;-79
2021/04/13 13:12:50;;;;;;;2.45;1.40;;;;;;;;;;5051452;28;20159;-79
2021/04/13 13:15:16;;;;;;;3.90;1.50;;;;;;;;;;5049420;28;20484;-79
2021/04/13 13:17:44;;;;;;;3.75;1.70;;;;;;;;;;5051639;28;20032;-80
2021/04/13 13:20:13;;;;;;;4.80;1.70;;;;;;;;;;5050800;28;20383;-79
2021/04/13 13:22:45;;;;;;;3.33;1.80;;;;;;;;;;5048290;28;20025;-79
2021/04/13 13:25:10;;;;;;;;;;;;;;;;;;5054876;28;20012;-79
2021/04/13 13:27:36;;;;;;;2.92;1.40;;;;;;;;;;5049127;28;20352;-79
2021/04/13 13:30:03;;;;;;;3.92;1.60;;;;;;;;;;5054676;28;20306;-79
2021/04/13 13:32:29;;;;;;;4.30;1.60;;;;;;;;;;5055229;28;20413;-78
2021/04/13 13:34:57;;;;;;;6.80;1.60;;;;;;;;;;5053559;28;20021;-79
2021/04/13 13:37:36;;;;;;;4.38;1.92;;;;;;;;;;5053638;28;20025;-78
2021/04/13 13:40:07;;;;;;;3.63;2.10;;;;;;;;;;5040890;28;20098;-79
2021/04/13 13:42:32;;;;;;;4.78;2.10;;;;;;;;;;5053901;28;20124;-78
2021/04/13 13:44:59;;;;;;;7.43;2.10;;;;;;;;;;5054877;28;20107;-79
2021/04/13 13:47:31;;;;;;;2.70;1.80;;;;;;;;;;5055007;28;20029;-79
2021/04/13 13:49:57;;;;;;;6.90;2.08;;;;;;;;;;5054722;28;20021;-79
2021/04/13 13:52:42;;;;;;;4.82;2.14;;;;;;;;;;5055016;28;20108;-79
2021/04/13 13:55:07;;;;;;;4.60;2.15;;;;;;;;;;5053119;28;20021;-79
2021/04/13 13:57:34;;;;;;;5.13;2.13;;;;;;;;;;5052646;28;20380;-79
2021/04/13 13:59:59;;;;;;;3.05;1.60;;;;;;;;;;5052442;28;20070;-79
2021/04/13 14:02:26;;;;;;;7.00;1.83;;;;;;;;;;5052578;28;20016;-79
2021/04/13 14:05:09;;;;;;;4.25;1.55;;;;;;;;;;5053919;28;20040;-80
2021/04/13 14:07:35;;;;;;;5.47;1.60;;;;;;;;;;5054339;28;20097;-79
2021/04/13 14:10:11;;;;;;;4.00;1.55;;;;;;;;;;5052567;28;20488;-79
2021/04/13 14:12:37;;;;;;;2.67;1.60;;;;;;;;;;5054389;28;20013;-79
2021/04/13 14:15:16;;;;;;;2.10;1.30;;;;;;;;;;5054076;28;20079;-79
2021/04/13 14:17:41;;;;;;;2.22;1.50;;;;;;;;;;5053145;28;20024;-79
2021/04/13 14:20:10;;;;;;;4.97;1.70;;;;;;;;;;5054061;28;20419;-79
2021/04/13 14:22:36;;;;;;;4.20;1.50;;;;;;;;;;5053826;28;20526;-79
2021/04/13 14:25:04;;;;;;;3.72;1.50;;;;;;;;;;5053985;28;20025;-80
2021/04/13 14:27:29;;;;;;;5.13;1.63;;;;;;;;;;5054039;28;20029;-80
2021/04/13 14:29:55;;;;;;;3.65;1.80;;;;;;;;;;5053910;28;20471;-79
2021/04/13 14:32:27;;;;;;;2.92;1.63;;;;;;;;;;5054094;28;20021;-79
2021/04/13 14:34:53;;;;;;;4.20;1.67;;;;;;;;;;5046391;28;20472;-79
2021/04/13 14:37:20;;;;;;;6.15;1.70;;;;;;;;;;5051945;28;20024;-80
2021/04/13 14:39:47;;;;;;;2.17;1.13;;;;;;;;;;5051795;28;20021;-80
2021/04/13 14:42:14;;;;;;;2.55;1.30;;;;;;;;;;5050298;28;20092;-80
2021/04/13 14:44:40;;;;;;;3.42;1.52;;;;;;;;;;5048987;28;20163;-79
2021/04/13 14:47:06;;;;;;;6.13;1.45;;;;;;;;;;5052425;28;20051;-79
2021/04/13 14:49:32;;;;;;;5.70;1.30;;;;;;;;;;5052143;28;20373;-79
2021/04/13 14:51:57;;;;;;;4.18;1.83;;;;;;;;;;5053344;28;20033;-79
2021/04/13 14:54:22;;;;;;;6.40;1.50;;;;;;;;;;5053525;28;20017;-79
2021/04/13 14:56:49;;;;;;;3.30;1.50;;;;;;;;;;5051907;28;20025;-79